自称マニア!!

LUXURY FLIGHT

03-6423-7371

羽田本店:東京都大田区羽田5-11-1
営業時間:10:00~20:00
定休日:毎週 月曜日
セントレア店:愛知県常滑市セントレア1-1
営業時間:10:00~20:00 年中無休

lv

自称マニア!!

STAFF BLOG

2019/05/10 自称マニア!!

おはようござりまする

 

本日のセントレアMETAR

RJGG 100000Z 33005KT CAVOK 18/11 Q1012 NOSIG

 

言うことありませんね!!

 

 

はてさて、本日ご紹介のお客様は、

 

自称航空マニアのスーパー美女!!

 

ぱっと見では、飛行機マニアとは誰も思わないような、

 

おしゃれで、都会的な美女

 

本当にマニアなんですか???的な話から入りましたが・・・・・

 

でも、お話をすると、自称通り確実なるマニアでした笑笑

 

なんでもお住いは横浜で、わざわざ787を観にセントレアに2泊も

 

それだけでもマニアですね

 

ある意味異常事態です

 

しかーーし!!

 

この異常事態こそが、我らのサービスをより受け入れて頂けるお客様で

 

あることは間違いないと

 

「我々は、この異常事態を常に大切にしております」

 

img_2878

フライトは、どちらかと言うとコックピットの空間を大切にしたい的な意図が伺えましたので

 

自動操縦をメインとし、楽しんでいただきました!!

 

本日は、朝一の羽田便で横浜へ戻られるとおっしゃってましたので、

 

そろそろ、横浜に到着された頃でしょうか!!

 

ぜひ、ご自宅近くの羽田本店にも遊びにお越しくださーーい!!

 

また、セントレアにも宜しくお願いしまーーす

 

 

この度は、ご遠方からのご来店、誠にありがとうございました。

 

「感謝」

 

 

 

 

 

 

 

 

 

TOP